createdAt,value
2022-11-16T00:00:32.397Z,76
2022-11-16T00:01:32.399Z,76.1
2022-11-16T00:02:32.544Z,76.1
2022-11-16T00:03:32.402Z,76.3
2022-11-16T00:04:32.442Z,76.3
2022-11-16T00:05:32.399Z,76.3
2022-11-16T00:06:32.402Z,76
2022-11-16T00:07:32.587Z,76.1
2022-11-16T00:08:32.885Z,75.9
2022-11-16T00:09:32.405Z,75.9
2022-11-16T00:10:32.401Z,75.8
2022-11-16T00:11:32.405Z,75.9
2022-11-16T00:12:32.400Z,76
2022-11-16T00:13:32.405Z,75.8
2022-11-16T00:14:32.395Z,75.9
2022-11-16T00:15:32.401Z,75.6
2022-11-16T00:16:32.429Z,75.7
2022-11-16T00:17:32.401Z,75.6
2022-11-16T00:18:32.800Z,75.6
2022-11-16T00:19:32.401Z,75.5
2022-11-16T00:20:32.418Z,75.5
2022-11-16T00:21:32.405Z,75.7
2022-11-16T00:22:32.414Z,75.6
2022-11-16T00:23:32.408Z,75.5
2022-11-16T00:24:32.416Z,75.5
2022-11-16T00:25:32.404Z,75.4
2022-11-16T00:26:32.405Z,75.4
2022-11-16T00:27:32.411Z,75.5
2022-11-16T00:29:32.429Z,75.6
2022-11-16T00:30:32.424Z,75.7
2022-11-16T00:31:32.411Z,75.8
2022-11-16T00:32:32.408Z,75.7
2022-11-16T00:33:32.448Z,75.6
2022-11-16T00:34:32.425Z,75.6
2022-11-16T00:35:32.401Z,75.5
2022-11-16T00:36:32.407Z,75.4
2022-11-16T00:37:32.409Z,75.3
2022-11-16T00:38:32.843Z,75.2
2022-11-16T00:39:32.409Z,75.3
2022-11-16T00:40:32.410Z,75.4
2022-11-16T00:41:32.409Z,75.4
2022-11-16T00:42:32.411Z,75.5
2022-11-16T00:43:32.421Z,75.5
2022-11-16T00:44:32.423Z,75.4
2022-11-16T00:45:32.419Z,75.4
2022-11-16T00:46:32.416Z,75.3
2022-11-16T00:47:32.409Z,75.5
2022-11-16T00:48:32.801Z,75.5
2022-11-16T00:49:32.417Z,75.6
2022-11-16T00:51:32.414Z,75.5
2022-11-16T00:52:32.412Z,75.4
2022-11-16T00:53:32.403Z,75.6
2022-11-16T00:54:32.412Z,75.8
2022-11-16T00:55:32.417Z,75.8
2022-11-16T00:56:32.409Z,75.9
2022-11-16T00:57:32.414Z,75.9
2022-11-16T00:58:32.941Z,75.9
2022-11-16T00:59:32.434Z,76.2
2022-11-16T01:00:32.462Z,76.1
2022-11-16T01:01:32.475Z,76
2022-11-16T01:02:32.414Z,76.1
2022-11-16T01:03:32.415Z,76
2022-11-16T01:04:32.410Z,75.9
2022-11-16T01:06:32.418Z,75.8
2022-11-16T01:07:32.503Z,75.8
2022-11-16T01:08:32.959Z,75.8
2022-11-16T01:09:32.407Z,75.7
2022-11-16T01:11:32.410Z,75.8
2022-11-16T01:12:32.415Z,75.7
2022-11-16T01:13:32.408Z,75.9
2022-11-16T01:14:32.427Z,75.9
2022-11-16T01:15:32.413Z,75.7
2022-11-16T01:16:32.411Z,75.8
2022-11-16T01:17:32.412Z,76
2022-11-16T01:18:32.778Z,75.9
2022-11-16T01:19:32.420Z,76
2022-11-16T01:20:32.419Z,76.2
2022-11-16T01:21:32.412Z,76.3
2022-11-16T01:22:32.416Z,76.3
2022-11-16T01:23:32.413Z,76.4
2022-11-16T01:24:32.409Z,76.4
2022-11-16T01:25:32.413Z,76.6
2022-11-16T01:26:32.413Z,76.6
2022-11-16T01:27:32.419Z,76.7
2022-11-16T01:28:32.846Z,76.7
2022-11-16T01:29:32.460Z,76.6
2022-11-16T01:30:32.435Z,76.7
2022-11-16T01:31:32.425Z,76.6
2022-11-16T01:32:32.419Z,76.8
2022-11-16T01:33:32.414Z,76.7
2022-11-16T01:34:32.476Z,76.6
2022-11-16T01:35:32.418Z,76.7
2022-11-16T01:36:32.420Z,76.8
2022-11-16T01:37:32.445Z,76.8
2022-11-16T01:38:32.790Z,76.8
2022-11-16T01:39:32.423Z,76.7
2022-11-16T01:40:32.439Z,76.7
2022-11-16T01:41:32.421Z,76.7
2022-11-16T01:42:32.421Z,76.6
2022-11-16T01:43:32.419Z,76.7
2022-11-16T01:45:32.422Z,76.8
2022-11-16T01:46:32.451Z,76.6
2022-11-16T01:47:32.411Z,76.6
2022-11-16T01:48:33.010Z,76.5
2022-11-16T01:50:32.420Z,76.8
2022-11-16T01:51:32.492Z,77.1
2022-11-16T01:52:32.419Z,77.4
2022-11-16T01:53:32.417Z,77.3
2022-11-16T01:54:32.424Z,77.4
2022-11-16T01:55:32.423Z,77.7
2022-11-16T01:56:32.420Z,77.7
2022-11-16T01:57:32.421Z,77.7
2022-11-16T01:58:32.780Z,77.7
2022-11-16T01:59:32.431Z,77.7
2022-11-16T02:00:32.420Z,77.9
2022-11-16T02:01:32.536Z,77.7
2022-11-16T02:02:32.427Z,77.7
2022-11-16T02:03:32.485Z,77.9
2022-11-16T02:04:32.426Z,78
2022-11-16T02:05:32.429Z,78.1
2022-11-16T02:06:32.444Z,78
2022-11-16T02:07:32.506Z,78.2
2022-11-16T02:08:32.861Z,78.9
2022-11-16T02:09:32.429Z,79.3
2022-11-16T02:10:32.427Z,79.3
2022-11-16T02:11:32.452Z,79.4
2022-11-16T02:12:32.429Z,79.5
2022-11-16T02:13:32.426Z,79.8
2022-11-16T02:14:32.438Z,79.7
2022-11-16T02:15:32.428Z,79.8
2022-11-16T02:16:32.429Z,80
2022-11-16T02:17:32.420Z,80.2
2022-11-16T02:18:32.831Z,80.2
2022-11-16T02:19:33.149Z,80.2
2022-11-16T02:20:32.428Z,80.1
2022-11-16T02:21:32.423Z,80.1
2022-11-16T02:22:32.427Z,80
2022-11-16T02:23:32.420Z,79.7
2022-11-16T02:24:32.430Z,79.5
2022-11-16T02:25:32.417Z,79.6
2022-11-16T02:27:32.428Z,79.4
2022-11-16T02:28:32.739Z,79.4
2022-11-16T02:29:32.423Z,79.3
2022-11-16T02:30:32.432Z,79.2
2022-11-16T02:31:32.427Z,78.9
2022-11-16T02:32:32.452Z,79
2022-11-16T02:33:32.429Z,78.8
2022-11-16T02:34:32.426Z,78.6
2022-11-16T02:35:32.425Z,78.3
2022-11-16T02:36:32.431Z,78.5
2022-11-16T02:37:32.499Z,78.6
2022-11-16T02:38:32.785Z,78.5
2022-11-16T02:39:32.429Z,78.5
2022-11-16T02:40:32.422Z,78.5
2022-11-16T02:41:32.428Z,78.4
2022-11-16T02:42:32.434Z,78.4
2022-11-16T02:43:32.431Z,78.3
2022-11-16T02:44:32.435Z,78.3
2022-11-16T02:45:32.461Z,78.2
2022-11-16T02:46:32.431Z,78.2
2022-11-16T02:47:32.431Z,77.9
2022-11-16T02:48:32.852Z,77.8
2022-11-16T02:49:32.433Z,77.6
2022-11-16T02:50:32.434Z,77.6
2022-11-16T02:51:32.496Z,77.6
2022-11-16T02:52:32.440Z,77.5
2022-11-16T02:53:32.443Z,77.5
2022-11-16T02:54:32.435Z,77.9
2022-11-16T02:55:32.427Z,78
2022-11-16T02:56:32.430Z,78
2022-11-16T02:57:32.432Z,78
2022-11-16T02:58:32.756Z,77.8
2022-11-16T02:59:32.472Z,77.7
2022-11-16T03:00:32.428Z,77.8
2022-11-16T03:01:32.541Z,77.7
2022-11-16T03:02:32.431Z,77.7
2022-11-16T03:03:32.460Z,77.7
2022-11-16T03:04:32.489Z,77.5
2022-11-16T03:06:32.428Z,77.6
2022-11-16T03:07:32.500Z,77.7
2022-11-16T03:08:32.967Z,77.7
2022-11-16T03:09:32.425Z,77.6
2022-11-16T03:11:32.433Z,77.5
2022-11-16T03:12:32.433Z,77.3
2022-11-16T03:13:32.435Z,77.4
2022-11-16T03:14:32.431Z,77.4
2022-11-16T03:15:32.429Z,77.3
2022-11-16T03:16:32.437Z,77.2
2022-11-16T03:17:32.436Z,77
2022-11-16T03:18:32.901Z,76.9
2022-11-16T03:19:39.274Z,77
2022-11-16T03:20:32.435Z,77.1
2022-11-16T03:21:32.439Z,77
2022-11-16T03:22:32.469Z,76.8
2022-11-16T03:23:32.436Z,76.8
2022-11-16T03:24:32.438Z,76.9
2022-11-16T03:25:32.436Z,76.8
2022-11-16T03:26:32.434Z,77.1
2022-11-16T03:27:32.438Z,77.2
2022-11-16T03:28:32.894Z,77.2
2022-11-16T03:29:32.441Z,77.3
2022-11-16T03:30:32.438Z,77.3
2022-11-16T03:31:32.433Z,77.4
2022-11-16T03:32:32.462Z,77.2
2022-11-16T03:33:32.443Z,77.2
2022-11-16T03:34:32.462Z,77
2022-11-16T03:35:32.446Z,77.2
2022-11-16T03:36:32.436Z,77.3
2022-11-16T03:37:32.437Z,77.2
2022-11-16T03:38:32.999Z,77.2
2022-11-16T03:40:32.439Z,77.2
2022-11-16T03:41:32.445Z,77.2
2022-11-16T03:42:32.448Z,77.2
2022-11-16T03:43:32.438Z,77.2
2022-11-16T03:45:32.443Z,77.3
2022-11-16T03:46:32.449Z,77.2
2022-11-16T03:47:32.448Z,77.4
2022-11-16T03:48:32.776Z,77.4
2022-11-16T03:50:32.486Z,77.3
2022-11-16T03:51:32.451Z,77.4
2022-11-16T03:52:32.438Z,77.3
2022-11-16T03:53:32.436Z,77.1
2022-11-16T03:54:32.454Z,77.1
2022-11-16T03:55:32.618Z,77.2
2022-11-16T03:56:32.442Z,77.4
2022-11-16T03:57:32.436Z,77.4
2022-11-16T03:58:32.767Z,77.3
2022-11-16T03:59:32.444Z,77.2
2022-11-16T04:00:32.482Z,77.4
2022-11-16T04:01:32.435Z,77.4
2022-11-16T04:02:32.458Z,77.4
2022-11-16T04:03:32.438Z,77.5
2022-11-16T04:04:32.441Z,77.6
2022-11-16T04:05:32.467Z,78.1
2022-11-16T04:06:32.445Z,78.5
2022-11-16T04:07:32.583Z,78.8
2022-11-16T04:08:32.887Z,78.9
2022-11-16T04:09:32.437Z,78.9
2022-11-16T04:10:32.484Z,79.1
2022-11-16T04:11:32.445Z,79.3
2022-11-16T04:12:32.500Z,79.6
2022-11-16T04:13:32.438Z,79.7
2022-11-16T04:14:32.447Z,80
2022-11-16T04:15:32.444Z,80.3
2022-11-16T04:16:32.444Z,80.3
2022-11-16T04:17:32.439Z,80.2
2022-11-16T04:18:32.791Z,80.2
2022-11-16T04:19:26.615Z,80.3
2022-11-16T04:20:32.449Z,80
2022-11-16T04:21:32.456Z,80.2
2022-11-16T04:22:32.446Z,80.2
2022-11-16T04:23:32.440Z,80.3
2022-11-16T04:24:32.494Z,81.1
2022-11-16T04:25:32.454Z,81.4
2022-11-16T04:27:32.443Z,81.7
2022-11-16T04:28:32.954Z,81.6
2022-11-16T04:29:32.441Z,81.5
2022-11-16T04:30:32.448Z,81.4
2022-11-16T04:32:32.445Z,81.5
2022-11-16T04:33:32.437Z,81.4
2022-11-16T04:34:32.451Z,81.3
2022-11-16T04:35:32.441Z,81.4
2022-11-16T04:36:32.478Z,81.5
2022-11-16T04:37:32.445Z,81.4
2022-11-16T04:38:32.908Z,81.3
2022-11-16T04:39:32.449Z,81.2
2022-11-16T04:40:32.451Z,81.2
2022-11-16T04:41:32.452Z,81.1
2022-11-16T04:42:32.447Z,81
2022-11-16T04:43:32.450Z,81
2022-11-16T04:44:32.447Z,81.2
2022-11-16T04:45:32.522Z,81.3
2022-11-16T04:46:32.504Z,81.3
2022-11-16T04:47:32.448Z,81
2022-11-16T04:48:32.832Z,80.9
2022-11-16T04:49:32.450Z,80.8
2022-11-16T04:50:32.448Z,80.8
2022-11-16T04:51:32.444Z,81
2022-11-16T04:52:32.446Z,81
2022-11-16T04:53:32.479Z,81.1
2022-11-16T04:54:32.460Z,81.4
2022-11-16T04:55:32.464Z,81.9
2022-11-16T04:56:32.451Z,82.2
2022-11-16T04:57:32.451Z,82.1
2022-11-16T04:58:32.914Z,82.1
2022-11-16T04:59:32.460Z,81.9
2022-11-16T05:00:32.451Z,81.9
2022-11-16T05:01:32.464Z,82.2
2022-11-16T05:02:32.450Z,82.3
2022-11-16T05:03:32.446Z,82.4
2022-11-16T05:04:32.448Z,82.4
2022-11-16T05:06:32.451Z,82.4
2022-11-16T05:07:32.604Z,82.5
2022-11-16T05:08:32.808Z,82.3
2022-11-16T05:09:32.463Z,82.6
2022-11-16T05:11:32.908Z,82.9
2022-11-16T05:12:32.455Z,82.7
2022-11-16T05:13:32.453Z,82.5
2022-11-16T05:14:32.462Z,82.4
2022-11-16T05:15:32.448Z,82.5
2022-11-16T05:16:32.456Z,82.6
2022-11-16T05:17:32.458Z,82.4
2022-11-16T05:18:32.951Z,82.6
2022-11-16T05:19:32.460Z,82.5
2022-11-16T05:20:32.454Z,82.3
2022-11-16T05:21:32.458Z,81.9
2022-11-16T05:22:32.454Z,81.6
2022-11-16T05:23:32.453Z,81.4
2022-11-16T05:24:32.490Z,81.3
2022-11-16T05:25:36.448Z,81.4
2022-11-16T05:26:32.460Z,81.5
2022-11-16T05:27:32.457Z,81.4
2022-11-16T05:28:32.909Z,81.3
2022-11-16T05:29:32.462Z,81.6
2022-11-16T05:30:32.539Z,82
2022-11-16T05:31:36.354Z,82.3
2022-11-16T05:32:32.457Z,82.6
2022-11-16T05:33:32.459Z,82.6
2022-11-16T05:34:32.456Z,82.6
2022-11-16T05:35:32.448Z,82.7
2022-11-16T05:36:32.459Z,82.8
2022-11-16T05:37:32.459Z,83.1
2022-11-16T05:38:32.905Z,83.2
2022-11-16T05:39:32.451Z,83.3
2022-11-16T05:40:32.454Z,83.4
2022-11-16T05:41:32.452Z,83.4
2022-11-16T05:42:32.509Z,83.2
2022-11-16T05:43:32.463Z,83.3
2022-11-16T05:45:32.453Z,83
2022-11-16T05:46:32.462Z,83
2022-11-16T05:47:32.468Z,82.9
2022-11-16T05:48:32.839Z,83
2022-11-16T05:50:32.461Z,83.2
2022-11-16T05:51:32.457Z,83.2
2022-11-16T05:52:32.457Z,83.2
2022-11-16T05:53:32.463Z,83.8
2022-11-16T05:54:32.456Z,84.4
2022-11-16T05:55:32.453Z,84.8
2022-11-16T05:56:32.514Z,84.9
2022-11-16T05:57:32.453Z,84.8
2022-11-16T05:58:32.947Z,84.6
2022-11-16T05:59:32.512Z,84.4
2022-11-16T06:00:32.464Z,84.1
2022-11-16T06:01:32.475Z,83.9
2022-11-16T06:02:32.456Z,83.3
2022-11-16T06:03:32.601Z,82.8
2022-11-16T06:05:36.301Z,82.3
2022-11-16T06:06:32.460Z,82
2022-11-16T06:07:32.649Z,82
2022-11-16T06:08:32.809Z,81.7
2022-11-16T06:09:32.468Z,81.5
2022-11-16T06:10:32.464Z,81.6
2022-11-16T06:11:35.682Z,81.7
2022-11-16T06:12:32.464Z,81.9
2022-11-16T06:13:32.454Z,81.9
2022-11-16T06:14:32.465Z,81.7
2022-11-16T06:15:32.456Z,81.3
2022-11-16T06:16:32.525Z,80.9
2022-11-16T06:17:32.464Z,80.8
2022-11-16T06:18:32.782Z,80.8
2022-11-16T06:19:32.832Z,80.5
2022-11-16T06:20:32.462Z,80.4
2022-11-16T06:21:32.462Z,80.5
2022-11-16T06:22:32.463Z,80.6
2022-11-16T06:23:32.460Z,80.5
2022-11-16T06:24:32.461Z,80.3
2022-11-16T06:25:32.471Z,80.7
2022-11-16T06:27:32.463Z,80.5
2022-11-16T06:28:32.777Z,80.5
2022-11-16T06:29:32.461Z,80.4
2022-11-16T06:30:32.462Z,80.1
2022-11-16T06:32:32.576Z,80.2
2022-11-16T06:33:33.872Z,80
2022-11-16T06:34:32.483Z,80.1
2022-11-16T06:35:32.469Z,80.2
2022-11-16T06:36:32.462Z,80.3
2022-11-16T06:37:32.465Z,80.1
2022-11-16T06:38:32.987Z,79.9
2022-11-16T06:39:32.461Z,80
2022-11-16T06:40:32.464Z,79.8
2022-11-16T06:41:32.473Z,79.7
2022-11-16T06:42:32.462Z,79.9
2022-11-16T06:43:32.468Z,80.3
2022-11-16T06:44:32.462Z,80.5
2022-11-16T06:45:32.468Z,80.5
2022-11-16T06:46:32.468Z,80.6
2022-11-16T06:47:32.508Z,80.9
2022-11-16T06:48:32.732Z,80.9
2022-11-16T06:49:32.457Z,81
2022-11-16T06:50:32.471Z,80.8
2022-11-16T06:51:32.460Z,80.8
2022-11-16T06:52:32.550Z,80.7
2022-11-16T06:53:32.470Z,80.6
2022-11-16T06:54:32.470Z,80.6
2022-11-16T06:55:32.478Z,80.7
2022-11-16T06:56:32.481Z,80.9
2022-11-16T06:57:32.460Z,81.1
2022-11-16T06:58:33.015Z,81.3
2022-11-16T06:59:32.471Z,81.4
2022-11-16T07:00:32.465Z,81.3
2022-11-16T07:01:32.542Z,81.5
2022-11-16T07:02:32.584Z,81.5
2022-11-16T07:04:32.459Z,81.4
2022-11-16T07:06:32.472Z,81.8
2022-11-16T07:07:32.560Z,81.8
2022-11-16T07:08:32.844Z,82.1
2022-11-16T07:09:32.525Z,82.3
2022-11-16T07:11:32.473Z,82.1
2022-11-16T07:12:32.507Z,82.1
2022-11-16T07:13:32.472Z,81.9
2022-11-16T07:14:32.540Z,82
2022-11-16T07:15:32.470Z,82.1
2022-11-16T07:16:32.466Z,81.9
2022-11-16T07:17:32.469Z,81.6
2022-11-16T07:18:32.845Z,81.7
2022-11-16T07:19:32.476Z,81.6
2022-11-16T07:20:32.479Z,81.6
2022-11-16T07:21:32.480Z,81.5
2022-11-16T07:22:32.469Z,81.5
2022-11-16T07:23:32.466Z,81.7
2022-11-16T07:24:32.462Z,81.8
2022-11-16T07:25:32.477Z,81.8
2022-11-16T07:26:32.498Z,81.7
2022-11-16T07:27:32.464Z,81.6
2022-11-16T07:28:32.974Z,81.5
2022-11-16T07:29:32.468Z,81.4
2022-11-16T07:30:32.473Z,81.4
2022-11-16T07:31:32.544Z,81.1
2022-11-16T07:32:32.491Z,80.9
2022-11-16T07:33:32.593Z,81
2022-11-16T07:34:32.485Z,80.9
2022-11-16T07:35:32.472Z,80.8
2022-11-16T07:36:32.465Z,80.9
2022-11-16T07:37:32.469Z,80.7
2022-11-16T07:40:32.471Z,79.8
2022-11-16T07:41:32.468Z,79.8
2022-11-16T07:42:32.476Z,79.7
2022-11-16T07:43:32.468Z,79.6
2022-11-16T07:45:32.525Z,79.2
2022-11-16T07:46:48.743Z,79.1
2022-11-16T07:47:32.489Z,79.1
2022-11-16T07:48:32.959Z,79.1
2022-11-16T07:50:32.482Z,79
2022-11-16T07:51:32.477Z,79
2022-11-16T07:52:32.475Z,79.3
2022-11-16T07:53:32.481Z,79.8
2022-11-16T07:54:32.475Z,79.9
2022-11-16T07:55:32.523Z,79.9
2022-11-16T07:56:32.469Z,79.5
2022-11-16T07:57:32.472Z,79.5
2022-11-16T07:58:32.943Z,79.4
2022-11-16T07:59:32.474Z,79.5
2022-11-16T08:00:32.473Z,79.7
2022-11-16T08:01:32.504Z,79.5
2022-11-16T08:03:32.472Z,79.7
2022-11-16T08:04:32.518Z,80.1
2022-11-16T08:05:32.469Z,80.4
2022-11-16T08:06:32.482Z,80.7
2022-11-16T08:07:32.553Z,80.9
2022-11-16T08:08:32.935Z,81.1
2022-11-16T08:09:32.468Z,81.1
2022-11-16T08:10:32.564Z,80.9
2022-11-16T08:11:32.479Z,80.7
2022-11-16T08:12:32.473Z,80.6
2022-11-16T08:13:32.479Z,80.5
2022-11-16T08:14:32.474Z,80.2
2022-11-16T08:15:32.486Z,79.9
2022-11-16T08:16:32.480Z,79.7
2022-11-16T08:17:32.477Z,80
2022-11-16T08:18:32.959Z,79.6
2022-11-16T08:19:32.477Z,79.6
2022-11-16T08:20:32.474Z,79.3
2022-11-16T08:21:32.488Z,79.4
2022-11-16T08:22:32.476Z,79.1
2022-11-16T08:23:32.483Z,78.5
2022-11-16T08:24:32.478Z,78
2022-11-16T08:25:32.478Z,77.8
2022-11-16T08:27:32.474Z,77.7
2022-11-16T08:28:32.864Z,77.4
2022-11-16T08:29:32.479Z,77.1
2022-11-16T08:30:32.474Z,77
2022-11-16T08:32:32.476Z,77
2022-11-16T08:33:32.473Z,76.5
2022-11-16T08:34:32.545Z,76.4
2022-11-16T08:35:32.604Z,76.5
2022-11-16T08:37:32.481Z,76.2
2022-11-16T08:38:32.937Z,75.8
2022-11-16T08:39:32.476Z,75.9
2022-11-16T08:40:32.488Z,76
2022-11-16T08:41:32.816Z,76.5
2022-11-16T08:42:32.479Z,76
2022-11-16T08:43:32.479Z,75.8
2022-11-16T08:44:32.479Z,75.6
2022-11-16T08:45:32.506Z,75.7
2022-11-16T08:46:32.490Z,75.7
2022-11-16T08:47:32.482Z,75.2
2022-11-16T08:48:32.891Z,74.8
2022-11-16T08:49:32.483Z,75
2022-11-16T08:50:44.274Z,75.1
2022-11-16T08:51:32.491Z,75.1
2022-11-16T08:52:32.482Z,75.2
2022-11-16T08:53:32.484Z,75
2022-11-16T08:54:32.480Z,74.4
2022-11-16T08:55:32.484Z,74.1
2022-11-16T08:56:32.485Z,74.6
2022-11-16T08:57:32.490Z,74.2
2022-11-16T08:58:32.811Z,74.6
2022-11-16T08:59:32.476Z,73.7
2022-11-16T09:00:32.478Z,73.9
2022-11-16T09:01:32.628Z,73.5
2022-11-16T09:02:32.481Z,73.5
2022-11-16T09:03:32.486Z,73.7
2022-11-16T09:04:36.877Z,74.1
2022-11-16T09:06:32.602Z,73.7
2022-11-16T09:07:32.629Z,73.8
2022-11-16T09:08:33.420Z,73.1
2022-11-16T09:09:32.476Z,72.6
2022-11-16T09:11:32.480Z,73
2022-11-16T09:12:32.481Z,73.1
2022-11-16T09:13:32.486Z,73.7
2022-11-16T09:14:32.495Z,74.1
2022-11-16T09:15:32.487Z,74
2022-11-16T09:16:32.486Z,73.7
2022-11-16T09:17:32.518Z,73.6
2022-11-16T09:18:32.879Z,73.4
2022-11-16T09:19:32.483Z,72.6
2022-11-16T09:20:32.481Z,72.2
2022-11-16T09:21:32.488Z,72.3
2022-11-16T09:22:32.487Z,72.6
2022-11-16T09:23:32.486Z,72.2
2022-11-16T09:24:32.477Z,72.2
2022-11-16T09:25:32.485Z,72.4
2022-11-16T09:26:32.488Z,72.7
2022-11-16T09:27:32.552Z,72.4
2022-11-16T09:28:32.981Z,72.3
2022-11-16T09:29:32.481Z,72.4
2022-11-16T09:30:32.536Z,72.7
2022-11-16T09:31:32.488Z,73.2
2022-11-16T09:32:32.485Z,73.2
2022-11-16T09:33:33.041Z,72.7
2022-11-16T09:34:32.491Z,72.1
2022-11-16T09:35:32.488Z,72.1
2022-11-16T09:36:32.500Z,72.1
2022-11-16T09:37:32.508Z,72.7
2022-11-16T09:38:47.451Z,72.9
2022-11-16T09:40:32.486Z,72.6
2022-11-16T09:41:32.482Z,72.5
2022-11-16T09:42:32.525Z,72.1
2022-11-16T09:43:32.959Z,72.3
2022-11-16T09:45:32.487Z,70.9
2022-11-16T09:46:32.492Z,70.4
2022-11-16T09:47:32.480Z,70.3
2022-11-16T09:48:32.484Z,70.2
2022-11-16T09:50:32.492Z,70.7
2022-11-16T09:51:32.500Z,69.8
2022-11-16T09:52:32.484Z,69.7
2022-11-16T09:53:33.013Z,69.2
2022-11-16T09:54:32.487Z,69.3
2022-11-16T09:55:32.481Z,69.7
2022-11-16T09:56:32.491Z,69.2
2022-11-16T09:57:32.492Z,69.1
2022-11-16T09:58:32.862Z,68.8
2022-11-16T09:59:32.545Z,68.1
2022-11-16T10:00:32.563Z,68.5
2022-11-16T10:01:32.498Z,68.5
2022-11-16T10:02:32.491Z,68.4
2022-11-16T10:03:32.857Z,66.8
2022-11-16T10:04:32.489Z,66.8
2022-11-16T10:05:32.489Z,67
2022-11-16T10:06:32.493Z,66.8
2022-11-16T10:07:32.629Z,65.9
2022-11-16T10:08:32.965Z,66.1
2022-11-16T10:09:32.574Z,66.3
2022-11-16T10:10:32.490Z,66.2
2022-11-16T10:11:32.487Z,65.6
2022-11-16T10:12:32.487Z,65.7
2022-11-16T10:13:32.824Z,66.4
2022-11-16T10:14:32.491Z,66.5
2022-11-16T10:15:32.484Z,66.5
2022-11-16T10:16:32.543Z,66.3
2022-11-16T10:17:32.487Z,66.4
2022-11-16T10:18:32.491Z,66.9
2022-11-16T10:19:32.488Z,67.5
2022-11-16T10:20:32.497Z,66.8
2022-11-16T10:21:32.559Z,67
2022-11-16T10:22:32.493Z,67.3
2022-11-16T10:23:33.010Z,67.1
2022-11-16T10:24:32.498Z,67.6
2022-11-16T10:25:32.492Z,66.9
2022-11-16T10:27:32.485Z,66.4
2022-11-16T10:28:32.485Z,66.2
2022-11-16T10:29:32.495Z,66.5
2022-11-16T10:30:32.493Z,66.3
2022-11-16T10:32:32.492Z,66.1
2022-11-16T10:33:32.741Z,65.9
2022-11-16T10:34:32.496Z,65.9
2022-11-16T10:35:32.495Z,65.1
2022-11-16T10:36:32.490Z,65.6
2022-11-16T10:37:32.498Z,66.6
2022-11-16T10:38:32.489Z,66.1
2022-11-16T10:39:32.525Z,65.4
2022-11-16T10:40:33.146Z,65.5
2022-11-16T10:41:32.494Z,65.5
2022-11-16T10:42:32.494Z,64.5
2022-11-16T10:43:33.012Z,64.8
2022-11-16T10:44:32.487Z,64.7
2022-11-16T10:45:32.496Z,65
2022-11-16T10:46:32.502Z,65
2022-11-16T10:47:34.050Z,64.8
2022-11-16T10:48:32.487Z,63.8
2022-11-16T10:49:32.503Z,64.6
2022-11-16T10:50:32.547Z,65
2022-11-16T10:51:32.499Z,64.2
2022-11-16T10:52:32.498Z,63.6
2022-11-16T10:53:32.981Z,64.6
2022-11-16T10:54:32.498Z,64.7
2022-11-16T10:55:32.496Z,64.7
2022-11-16T10:56:32.500Z,63.9
2022-11-16T10:57:32.497Z,63.4
2022-11-16T10:58:32.497Z,63.3
2022-11-16T10:59:32.491Z,61.8
2022-11-16T11:00:32.558Z,61.5
2022-11-16T11:01:32.497Z,60.4
2022-11-16T11:02:32.500Z,60.5
2022-11-16T11:03:32.859Z,60.7
2022-11-16T11:04:32.494Z,60.5
2022-11-16T11:06:32.518Z,60
2022-11-16T11:07:32.614Z,59.4
2022-11-16T11:08:32.495Z,59.9
2022-11-16T11:09:32.511Z,59.2
2022-11-16T11:11:32.493Z,58.9
2022-11-16T11:12:32.503Z,59.8
2022-11-16T11:13:32.879Z,59.5
2022-11-16T11:14:32.498Z,59.3
2022-11-16T11:15:32.497Z,59.1
2022-11-16T11:16:32.504Z,59.7
2022-11-16T11:17:32.500Z,60
2022-11-16T11:18:32.525Z,60.5
2022-11-16T11:19:32.500Z,60.6
2022-11-16T11:20:32.494Z,59.6
2022-11-16T11:21:32.494Z,59.3
2022-11-16T11:22:32.544Z,58.6
2022-11-16T11:23:32.765Z,59
2022-11-16T11:24:47.998Z,58.6
2022-11-16T11:25:32.509Z,58.1
2022-11-16T11:26:36.601Z,56.6
2022-11-16T11:27:32.550Z,56.8
2022-11-16T11:28:32.520Z,57
2022-11-16T11:29:32.524Z,56.9
2022-11-16T11:30:32.495Z,56.7
2022-11-16T11:31:32.502Z,56.6
2022-11-16T11:32:32.503Z,56
2022-11-16T11:33:32.915Z,55.9
2022-11-16T11:34:32.506Z,56.4
2022-11-16T11:35:32.502Z,56.7
2022-11-16T11:36:32.501Z,56.8
2022-11-16T11:37:32.505Z,57.1
2022-11-16T11:38:32.508Z,56.7
2022-11-16T11:39:32.603Z,56.8
2022-11-16T11:40:39.153Z,56.5
2022-11-16T11:41:32.640Z,56.5
2022-11-16T11:42:32.495Z,57.1
2022-11-16T11:43:32.811Z,57.5
2022-11-16T11:45:32.504Z,57.3
2022-11-16T11:46:59.742Z,57.9
2022-11-16T11:47:57.866Z,57
2022-11-16T11:48:32.499Z,56.7
2022-11-16T11:50:32.506Z,55.8
2022-11-16T11:51:32.506Z,55.6
2022-11-16T11:52:32.508Z,54.9
2022-11-16T11:53:32.810Z,55.3
2022-11-16T11:54:32.520Z,55.6
2022-11-16T11:55:32.511Z,55.7
2022-11-16T11:56:32.512Z,55.6
2022-11-16T11:57:32.505Z,55.7
2022-11-16T11:58:32.511Z,55.3
2022-11-16T11:59:32.505Z,55.2
2022-11-16T12:00:32.512Z,55.6
2022-11-16T12:01:32.520Z,55.1
2022-11-16T12:02:32.547Z,55.1
2022-11-16T12:03:32.991Z,55.1
2022-11-16T12:04:32.507Z,55.4
2022-11-16T12:05:32.500Z,54.8
2022-11-16T12:06:32.510Z,54.4
2022-11-16T12:07:32.589Z,55
2022-11-16T12:08:32.519Z,55.7
2022-11-16T12:09:32.500Z,55.4
2022-11-16T12:10:32.499Z,55.4
2022-11-16T12:11:32.507Z,56.4
2022-11-16T12:12:32.569Z,55.4
2022-11-16T12:13:33.054Z,55.2
2022-11-16T12:14:32.505Z,55.7
2022-11-16T12:15:32.514Z,55.1
2022-11-16T12:16:32.511Z,54.7
2022-11-16T12:17:32.502Z,55
2022-11-16T12:18:32.514Z,54.8
2022-11-16T12:19:32.514Z,54.7
2022-11-16T12:20:32.513Z,54.8
2022-11-16T12:21:32.511Z,54.8
2022-11-16T12:22:32.517Z,54.3
2022-11-16T12:23:32.933Z,54.8
2022-11-16T12:24:32.511Z,55.1
2022-11-16T12:25:32.507Z,55.1
2022-11-16T12:27:32.508Z,56.1
2022-11-16T12:28:32.512Z,55.6
2022-11-16T12:29:32.504Z,55.3
2022-11-16T12:30:32.562Z,55.4
2022-11-16T12:32:32.515Z,55
2022-11-16T12:33:32.868Z,54.4
2022-11-16T12:34:32.509Z,54.2
2022-11-16T12:35:32.507Z,53.4
2022-11-16T12:36:32.518Z,53.9
2022-11-16T12:37:32.511Z,54.1
2022-11-16T12:38:32.513Z,54.3
2022-11-16T12:39:32.516Z,54.3
2022-11-16T12:40:26.643Z,54.4
2022-11-16T12:41:32.510Z,54.8
2022-11-16T12:42:32.555Z,55.1
2022-11-16T12:43:32.789Z,55.6
2022-11-16T12:44:32.514Z,54.8
2022-11-16T12:45:32.852Z,55.4
2022-11-16T12:46:32.520Z,55.5
2022-11-16T12:47:32.507Z,55.5
2022-11-16T12:48:32.507Z,55.3
2022-11-16T12:49:32.512Z,55.7
2022-11-16T12:50:32.510Z,54.7
2022-11-16T12:51:32.507Z,54.4
2022-11-16T12:53:33.016Z,54.6
2022-11-16T12:54:32.602Z,54.3
2022-11-16T12:55:32.508Z,54.3
2022-11-16T12:56:32.511Z,54.6
2022-11-16T12:57:32.517Z,53.9
2022-11-16T12:58:32.510Z,53.4
2022-11-16T12:59:32.516Z,53.6
2022-11-16T13:00:32.522Z,53.2
2022-11-16T13:02:32.518Z,52.7
2022-11-16T13:03:32.896Z,52.3
2022-11-16T13:04:32.570Z,52.3
2022-11-16T13:06:32.521Z,52.6
2022-11-16T13:07:32.655Z,52.8
2022-11-16T13:08:32.533Z,53.1
2022-11-16T13:09:32.518Z,53
2022-11-16T13:11:32.521Z,52.6
2022-11-16T13:12:32.521Z,52
2022-11-16T13:13:36.965Z,52.4
2022-11-16T13:14:32.545Z,52.5
2022-11-16T13:15:32.532Z,52.5
2022-11-16T13:16:32.519Z,52.2
2022-11-16T13:17:32.521Z,52.9
2022-11-16T13:18:32.514Z,52.8
2022-11-16T13:19:32.518Z,52.6
2022-11-16T13:20:32.524Z,53.5
2022-11-16T13:21:32.565Z,53.5
2022-11-16T13:22:32.525Z,53.7
2022-11-16T13:23:32.980Z,53.9
2022-11-16T13:24:32.518Z,52.8
2022-11-16T13:25:32.526Z,52.9
2022-11-16T13:26:32.573Z,53.4
2022-11-16T13:27:32.520Z,52.5
2022-11-16T13:29:32.525Z,52.3
2022-11-16T13:30:32.521Z,51.8
2022-11-16T13:31:32.521Z,51.6
2022-11-16T13:32:32.522Z,51
2022-11-16T13:33:32.516Z,50.4
2022-11-16T13:34:32.519Z,49.9
2022-11-16T13:35:32.523Z,49.3
2022-11-16T13:36:32.538Z,48.5
2022-11-16T13:37:32.527Z,47.7
2022-11-16T13:38:32.839Z,47.2
2022-11-16T13:39:32.526Z,46.5
2022-11-16T13:40:32.540Z,45.7
2022-11-16T13:41:32.529Z,45.4
2022-11-16T13:42:32.520Z,45.7
2022-11-16T13:43:32.569Z,45.9
2022-11-16T13:44:32.528Z,46.4
2022-11-16T13:45:32.748Z,47.9
2022-11-16T13:46:54.688Z,47.8
2022-11-16T13:47:32.525Z,48.1
2022-11-16T13:48:32.811Z,49.2
2022-11-16T13:50:37.431Z,49.6
2022-11-16T13:51:32.528Z,49.9
2022-11-16T13:52:57.479Z,50.7
2022-11-16T13:54:32.685Z,51.4
2022-11-16T13:54:47.465Z,51.6
2022-11-16T13:55:32.532Z,52.4
2022-11-16T13:56:32.525Z,52.9
2022-11-16T13:57:32.541Z,52.7
2022-11-16T13:58:32.532Z,53.3
2022-11-16T13:59:32.533Z,53.7
2022-11-16T14:00:32.534Z,53.7
2022-11-16T14:01:32.589Z,53.2
2022-11-16T14:02:32.527Z,54.2
2022-11-16T14:03:33.134Z,54
2022-11-16T14:04:32.526Z,54.4
2022-11-16T14:05:32.538Z,53.8
2022-11-16T14:06:32.532Z,54.1
2022-11-16T14:07:32.706Z,54.8
2022-11-16T14:08:32.530Z,55
2022-11-16T14:09:33.247Z,54.7
2022-11-16T14:10:32.522Z,55.1
2022-11-16T14:11:32.536Z,54.8
2022-11-16T14:12:32.524Z,55
2022-11-16T14:13:32.862Z,55
2022-11-16T14:14:32.527Z,55